Time;durP1;ratioP1;P1;durP2;ratioP2;P2;SDS_P1;SDS_P2;PMS_P1;PMS_P2;Temp;Humidity;BMP_temperature;BMP_pressure;BME280_temperature;BME280_humidity;BME280_pressure;Samples;Min_cycle;Max_cycle;Signal;HPM_P1;HPM_P2
2024/01/23 00:00:27;;;;;;;12.25;2.78;;;11.20;61.00;;;;;;5037523;28;20384;-77
2024/01/23 00:02:53;;;;;;;9.27;3.03;;;11.20;61.60;;;;;;5042011;28;20057;-77
2024/01/23 00:05:19;;;;;;;10.45;3.35;;;11.20;61.00;;;;;;5040327;28;20062;-77
2024/01/23 00:07:45;;;;;;;9.68;2.97;;;11.10;60.90;;;;;;5017878;28;20152;-78
2024/01/23 00:10:11;;;;;;;8.98;2.47;;;11.10;60.90;;;;;;5037724;28;20441;-76
2024/01/23 00:12:37;;;;;;;9.82;2.60;;;11.10;61.00;;;;;;5041042;28;20067;-77
2024/01/23 00:15:03;;;;;;;10.23;3.20;;;11.00;60.90;;;;;;5022464;28;20480;-75
2024/01/23 00:17:29;;;;;;;11.27;2.83;;;11.00;61.00;;;;;;5023103;28;20032;-77
2024/01/23 00:19:56;;;;;;;15.18;4.15;;;11.00;61.00;;;;;;5005418;28;20032;-77
2024/01/23 00:22:23;;;;;;;11.00;3.25;;;10.90;60.90;;;;;;5037344;28;20331;-75
2024/01/23 00:24:50;;;;;;;13.32;3.30;;;10.80;60.80;;;;;;5018182;28;20573;-78
2024/01/23 00:27:16;;;;;;;12.93;2.83;;;10.90;61.00;;;;;;5036175;28;20033;-76
2024/01/23 00:29:43;;;;;;;14.63;3.63;;;10.80;60.90;;;;;;5029887;28;20119;-76
2024/01/23 00:32:09;;;;;;;8.65;2.65;;;10.80;61.00;;;;;;5032699;28;20383;-77
2024/01/23 00:34:35;;;;;;;13.02;3.13;;;10.80;61.00;;;;;;5020903;28;20156;-76
2024/01/23 00:37:03;;;;;;;11.60;3.65;;;10.70;60.90;;;;;;5020571;28;20567;-76
2024/01/23 00:39:29;;;;;;;15.05;3.63;;;10.70;61.00;;;;;;5041624;28;20033;-76
2024/01/23 00:41:55;;;;;;;11.32;3.00;;;10.70;61.00;;;;;;5031911;28;20034;-75
2024/01/23 00:44:21;;;;;;;16.27;3.92;;;10.70;61.10;;;;;;5032534;28;20048;-75
2024/01/23 00:46:47;;;;;;;14.15;3.17;;;10.70;61.10;;;;;;5039173;28;20041;-75
2024/01/23 00:49:13;;;;;;;15.68;4.30;;;10.70;61.10;;;;;;5039804;28;20340;-76
2024/01/23 00:51:39;;;;;;;13.77;4.20;;;10.60;61.00;;;;;;5020655;28;20037;-76
2024/01/23 00:54:05;;;;;;;15.25;4.57;;;10.60;61.00;;;;;;5018906;28;20590;-78
2024/01/23 00:56:31;;;;;;;10.82;3.10;;;10.60;61.10;;;;;;5036608;28;20033;-77
2024/01/23 00:58:57;;;;;;;13.75;3.20;;;10.60;61.20;;;;;;5035107;28;20025;-76
2024/01/23 01:01:25;;;;;;;15.18;3.53;;;10.60;61.20;;;;;;5013497;28;20043;-76
2024/01/23 01:03:52;;;;;;;14.20;4.90;;;10.50;61.10;;;;;;5017369;28;20033;-77
2024/01/23 01:06:21;;;;;;;15.95;3.10;;;10.50;61.20;;;;;;5036693;28;20507;-77
2024/01/23 01:08:47;;;;;;;12.57;2.97;;;10.50;61.20;;;;;;4999254;28;20235;-77
2024/01/23 01:11:12;;;;;;;12.30;3.10;;;10.50;61.30;;;;;;5021747;28;20890;-75
2024/01/23 01:13:38;;;;;;;14.35;3.45;;;10.40;61.20;;;;;;5017005;28;20392;-75
2024/01/23 01:16:05;;;;;;;24.25;4.65;;;10.40;61.20;;;;;;5037491;28;20029;-74
2024/01/23 01:18:32;;;;;;;18.30;3.63;;;10.40;61.30;;;;;;5022273;28;20029;-75
2024/01/23 01:21:00;;;;;;;15.05;3.15;;;10.40;61.30;;;;;;5022124;28;20047;-75
2024/01/23 01:23:27;;;;;;;15.50;3.35;;;10.40;61.40;;;;;;5019275;28;20059;-75
2024/01/23 01:25:54;;;;;;;10.35;2.90;;;10.30;61.20;;;;;;5038422;28;20033;-75
2024/01/23 01:28:20;;;;;;;14.68;3.35;;;10.30;61.30;;;;;;5014348;28;20496;-75
2024/01/23 01:30:46;;;;;;;20.02;4.15;;;10.30;61.30;;;;;;5033627;28;20025;-76
2024/01/23 01:33:13;;;;;;;17.48;3.45;;;10.30;61.40;;;;;;5008053;28;20061;-76
2024/01/23 01:35:39;;;;;;;17.90;3.35;;;10.30;61.50;;;;;;5035541;28;20499;-75
2024/01/23 01:38:06;;;;;;;15.88;3.42;;;10.20;61.30;;;;;;5037810;28;20032;-76
2024/01/23 01:40:32;;;;;;;13.60;4.10;;;10.20;61.40;;;;;;4994009;28;20116;-76
2024/01/23 01:42:58;;;;;;;14.77;3.95;;;10.20;61.40;;;;;;5023852;28;20043;-76
2024/01/23 01:45:25;;;;;;;16.67;3.85;;;10.20;61.40;;;;;;5017553;28;20025;-75
2024/01/23 01:47:53;;;;;;;16.13;4.15;;;10.20;61.40;;;;;;5034935;28;20048;-77
2024/01/23 01:50:20;;;;;;;17.25;4.03;;;10.10;61.30;;;;;;5024771;28;20037;-77
2024/01/23 01:52:46;;;;;;;12.30;3.38;;;10.10;61.30;;;;;;4996638;28;20476;-78
2024/01/23 01:55:12;;;;;;;10.90;2.83;;;10.10;61.30;;;;;;5008001;28;20021;-77
2024/01/23 01:57:42;;;;;;;19.10;4.15;;;10.10;61.30;;;;;;5042433;28;20525;-76
2024/01/23 02:00:09;;;;;;;12.15;3.60;;;10.10;61.40;;;;;;5040283;28;20115;-77
2024/01/23 02:02:41;;;;;;;16.00;3.85;;;10.00;61.20;;;;;;5036469;28;20037;-77
2024/01/23 02:05:08;;;;;;;11.00;2.85;;;10.00;61.20;;;;;;5022786;28;20577;-76
2024/01/23 02:07:34;;;;;;;12.65;3.58;;;9.90;61.10;;;;;;5038506;28;20049;-76
2024/01/23 02:10:00;;;;;;;13.80;4.22;;;9.90;61.20;;;;;;5036384;28;20033;-78
2024/01/23 02:12:26;;;;;;;17.15;3.60;;;9.90;61.20;;;;;;5042203;28;20029;-76
2024/01/23 02:14:52;;;;;;;15.23;4.10;;;9.80;61.00;;;;;;5034137;28;20103;-78
2024/01/23 02:17:18;;;;;;;13.30;3.58;;;9.80;61.10;;;;;;5043164;28;20208;-77
2024/01/23 02:19:44;;;;;;;13.57;3.95;;;9.80;61.20;;;;;;5024553;28;20032;-76
2024/01/23 02:22:11;;;;;;;11.52;3.60;;;9.70;61.10;;;;;;5022690;28;20029;-77
2024/01/23 02:24:37;;;;;;;12.40;3.10;;;9.70;61.20;;;;;;5024553;28;20029;-77
2024/01/23 02:27:04;;;;;;;15.38;3.67;;;9.70;61.20;;;;;;5042057;28;20339;-77
2024/01/23 02:29:30;;;;;;;14.73;3.13;;;9.60;61.10;;;;;;5042551;28;20203;-77
2024/01/23 02:31:56;;;;;;;11.45;3.00;;;9.60;61.10;;;;;;5042230;28;20046;-76
2024/01/23 02:34:24;;;;;;;10.57;2.80;;;9.60;61.10;;;;;;5037420;28;20025;-78
2024/01/23 02:36:50;;;;;;;12.65;3.47;;;9.60;61.10;;;;;;5040729;28;20039;-76
2024/01/23 02:39:16;;;;;;;13.15;3.38;;;9.50;60.90;;;;;;5042294;28;20451;-78
2024/01/23 02:41:42;;;;;;;9.50;3.58;;;9.50;61.00;;;;;;5041457;28;20060;-77
2024/01/23 02:44:08;;;;;;;12.00;3.10;;;9.40;60.90;;;;;;5025658;28;20033;-77
2024/01/23 02:46:34;;;;;;;10.80;3.15;;;9.40;60.90;;;;;;5044474;28;20049;-77
2024/01/23 02:49:00;;;;;;;13.07;4.18;;;9.40;61.00;;;;;;5010716;28;20147;-77
2024/01/23 02:51:26;;;;;;;12.95;2.85;;;9.30;60.80;;;;;;5047678;28;20041;-76
2024/01/23 02:53:52;;;;;;;13.15;4.13;;;9.30;60.90;;;;;;5043925;28;20112;-77
2024/01/23 02:56:18;;;;;;;11.80;3.20;;;9.30;60.90;;;;;;5028018;28;20090;-79
2024/01/23 02:58:43;;;;;;;13.00;3.03;;;9.20;60.80;;;;;;5028481;28;20029;-76
2024/01/23 03:01:09;;;;;;;15.00;3.38;;;9.20;60.80;;;;;;5046401;28;20066;-77
2024/01/23 03:03:35;;;;;;;8.13;2.50;;;9.20;60.80;;;;;;5049447;28;20507;-77
2024/01/23 03:06:01;;;;;;;9.90;2.85;;;9.10;60.70;;;;;;5040069;28;20474;-77
2024/01/23 03:08:27;;;;;;;11.50;3.22;;;9.10;60.80;;;;;;5035879;28;20037;-77
2024/01/23 03:10:53;;;;;;;13.75;4.13;;;9.10;60.80;;;;;;5046572;28;20035;-76
2024/01/23 03:13:19;;;;;;;11.50;4.18;;;9.00;60.70;;;;;;5026020;28;20035;-76
2024/01/23 03:15:48;;;;;;;13.32;3.15;;;9.00;60.80;;;;;;5041952;28;20480;-77
2024/01/23 03:18:13;;;;;;;12.85;2.97;;;9.00;60.80;;;;;;5046251;28;20064;-76
2024/01/23 03:20:39;;;;;;;10.40;2.92;;;9.00;60.90;;;;;;5026274;28;20079;-77
2024/01/23 03:23:05;;;;;;;12.55;3.40;;;8.90;60.70;;;;;;5045852;28;20219;-76
2024/01/23 03:25:31;;;;;;;18.30;3.35;;;8.90;60.80;;;;;;5047070;28;20443;-76
2024/01/23 03:27:58;;;;;;;12.45;3.03;;;8.90;60.90;;;;;;5041059;28;20057;-76
2024/01/23 03:30:28;;;;;;;15.38;3.15;;;8.90;60.90;;;;;;5046398;28;20029;-77
2024/01/23 03:32:55;;;;;;;16.25;4.07;;;8.90;61.00;;;;;;5044570;28;20031;-78
2024/01/23 03:35:21;;;;;;;10.63;3.13;;;8.80;60.90;;;;;;5037594;28;20036;-78
2024/01/23 03:37:48;;;;;;;10.60;3.55;;;8.80;60.90;;;;;;5046033;28;20291;-77
2024/01/23 03:40:14;;;;;;;13.20;4.20;;;8.80;60.90;;;;;;5046180;28;20106;-78
2024/01/23 03:42:40;;;;;;;14.18;3.58;;;8.70;60.70;;;;;;5045640;28;20021;-77
2024/01/23 03:45:06;;;;;;;10.77;3.42;;;8.70;60.80;;;;;;5041863;28;20033;-76
2024/01/23 03:47:32;;;;;;;15.93;3.47;;;8.70;60.80;;;;;;5028849;28;20192;-77
2024/01/23 03:49:58;;;;;;;15.25;5.00;;;8.70;60.90;;;;;;5028424;28;20499;-77
2024/01/23 03:52:24;;;;;;;11.98;2.85;;;8.70;60.90;;;;;;5045420;28;20040;-78
2024/01/23 03:54:50;;;;;;;12.48;3.42;;;8.70;61.00;;;;;;5028265;28;20463;-77
2024/01/23 03:57:16;;;;;;;15.35;2.90;;;8.60;60.90;;;;;;5046321;28;20029;-77
2024/01/23 03:59:45;;;;;;;15.35;3.80;;;8.60;60.90;;;;;;5026812;28;20091;-77
2024/01/23 04:02:12;;;;;;;10.52;3.10;;;8.60;61.00;;;;;;5038816;28;20475;-77
2024/01/23 04:04:39;;;;;;;12.05;2.95;;;8.60;61.00;;;;;;5047943;28;20021;-77
2024/01/23 04:07:05;;;;;;;10.48;3.28;;;8.60;61.00;;;;;;5022060;28;20399;-78
2024/01/23 04:09:31;;;;;;;16.80;3.63;;;8.60;61.10;;;;;;5020929;28;20033;-77
2024/01/23 04:11:56;;;;;;;13.77;4.85;;;8.60;61.20;;;;;;5046026;28;20036;-78
2024/01/23 04:14:23;;;;;;;15.30;4.00;;;8.60;61.20;;;;;;5012710;28;20459;-79
2024/01/23 04:16:49;;;;;;;13.35;3.33;;;8.60;61.30;;;;;;5027568;28;20024;-77
2024/01/23 04:19:14;;;;;;;13.32;3.33;;;8.50;61.10;;;;;;5025151;28;20036;-76
2024/01/23 04:21:40;;;;;;;13.32;2.83;;;8.60;61.30;;;;;;5027754;28;20294;-77
2024/01/23 04:24:09;;;;;;;15.45;3.33;;;8.50;61.20;;;;;;5045974;28;20571;-79
2024/01/23 04:26:35;;;;;;;22.17;4.53;;;8.60;61.40;;;;;;5038710;28;20140;-76
2024/01/23 04:29:00;;;;;;;14.18;3.67;;;8.60;61.40;;;;;;5025177;28;20040;-77
2024/01/23 04:31:26;;;;;;;10.98;2.75;;;8.60;61.50;;;;;;5026498;28;20023;-76
2024/01/23 04:33:53;;;;;;;12.57;3.90;;;8.60;61.60;;;;;;5028725;28;20057;-77
2024/01/23 04:36:18;;;;;;;13.20;3.63;;;8.60;61.60;;;;;;5025922;28;20306;-78
2024/01/23 04:38:45;;;;;;;15.60;3.65;;;8.60;61.60;;;;;;5040860;28;20242;-77
2024/01/23 04:41:11;;;;;;;13.60;3.47;;;8.60;61.70;;;;;;5045672;28;20392;-77
2024/01/23 04:43:38;;;;;;;14.13;3.28;;;8.60;61.70;;;;;;5046195;28;20478;-76
2024/01/23 04:46:05;;;;;;;10.23;2.50;;;8.60;61.70;;;;;;5021089;28;20416;-77
2024/01/23 04:48:31;;;;;;;14.23;3.00;;;8.70;62.00;;;;;;5021200;28;20065;-78
2024/01/23 04:50:58;;;;;;;16.80;3.00;;;8.70;62.00;;;;;;5043982;28;20036;-77
2024/01/23 04:53:27;;;;;;;17.45;3.40;;;8.70;62.00;;;;;;5044812;28;20037;-78
2024/01/23 04:55:53;;;;;;;14.45;3.30;;;8.80;62.20;;;;;;5026779;28;20532;-78
2024/01/23 04:58:19;;;;;;;14.57;3.58;;;8.70;62.00;;;;;;5021480;28;20048;-78
2024/01/23 05:00:45;;;;;;;21.83;3.72;;;8.80;62.20;;;;;;5030736;28;20484;-77
2024/01/23 05:03:11;;;;;;;14.90;4.15;;;8.80;62.20;;;;;;5042562;28;20031;-77
2024/01/23 05:05:37;;;;;;;14.35;3.38;;;8.80;62.30;;;;;;5045584;28;20040;-77
2024/01/23 05:08:05;;;;;;;10.98;2.88;;;8.80;62.30;;;;;;5023578;28;20030;-78
2024/01/23 05:10:32;;;;;;;14.88;3.72;;;8.90;62.50;;;;;;5014239;28;20408;-78
2024/01/23 05:12:58;;;;;;;15.95;3.67;;;8.90;62.50;;;;;;5046874;28;20033;-77
2024/01/23 05:15:24;;;;;;;15.75;4.00;;;8.90;62.50;;;;;;5045798;28;20033;-78
2024/01/23 05:17:50;;;;;;;12.23;3.10;;;9.00;62.70;;;;;;5048117;28;20117;-78
2024/01/23 05:20:16;;;;;;;16.05;4.05;;;9.00;62.70;;;;;;5047338;28;20041;-78
2024/01/23 05:22:43;;;;;;;10.50;3.15;;;9.00;62.80;;;;;;5048258;28;20107;-78
2024/01/23 05:25:09;;;;;;;20.85;6.20;;;9.00;62.80;;;;;;5045842;28;20060;-79
2024/01/23 05:27:35;;;;;;;20.48;3.65;;;9.10;63.00;;;;;;5040718;28;20286;-77
2024/01/23 05:30:05;;;;;;;14.60;4.13;;;9.10;63.00;;;;;;5043583;28;20040;-78
2024/01/23 05:32:32;;;;;;;11.77;3.03;;;9.10;63.00;;;;;;5049604;28;20032;-77
2024/01/23 05:34:59;;;;;;;16.52;4.47;;;9.20;63.20;;;;;;5050103;28;20545;-78
2024/01/23 05:37:25;;;;;;;15.50;4.20;;;9.20;63.30;;;;;;5027345;28;20026;-78
2024/01/23 05:39:51;;;;;;;15.13;3.60;;;9.20;63.30;;;;;;5040688;28;20199;-78
2024/01/23 05:42:18;;;;;;;13.68;4.03;;;9.20;63.30;;;;;;5040684;28;20395;-78
2024/01/23 05:44:44;;;;;;;16.27;4.13;;;9.20;63.30;;;;;;5048962;28;20493;-78
2024/01/23 05:47:10;;;;;;;11.98;3.80;;;9.30;63.50;;;;;;5048102;28;20052;-77
2024/01/23 05:49:36;;;;;;;16.08;4.68;;;9.40;63.70;;;;;;5026428;28;20361;-76
2024/01/23 05:52:02;;;;;;;19.08;5.88;;;9.40;63.70;;;;;;5043938;28;20039;-78
2024/01/23 05:54:28;;;;;;;16.75;3.60;;;9.40;63.70;;;;;;5044200;28;20174;-78
2024/01/23 05:56:55;;;;;;;19.15;3.78;;;9.50;63.90;;;;;;5044803;28;20029;-78
2024/01/23 05:59:21;;;;;;;17.17;4.78;;;9.50;63.90;;;;;;5027083;28;20119;-78
2024/01/23 06:01:47;;;;;;;21.08;4.85;;;9.50;63.90;;;;;;5028833;28;20146;-79
2024/01/23 06:04:13;;;;;;;14.95;2.70;;;9.60;64.10;;;;;;5034852;28;20036;-79
2024/01/23 06:06:43;;;;;;;22.85;4.28;;;9.60;64.10;;;;;;5020564;28;20045;-78
2024/01/23 06:09:10;;;;;;;16.60;3.33;;;9.60;64.10;;;;;;5036305;28;20121;-77
2024/01/23 06:11:38;;;;;;;13.65;3.28;;;9.70;64.30;;;;;;5038838;28;20044;-78
2024/01/23 06:14:04;;;;;;;14.75;3.88;;;9.70;64.30;;;;;;5040074;28;20087;-77
2024/01/23 06:16:30;;;;;;;14.98;4.35;;;9.70;64.30;;;;;;5040056;28;20504;-79
2024/01/23 06:18:56;;;;;;;17.35;4.05;;;9.80;64.50;;;;;;5042403;28;20388;-78
2024/01/23 06:21:22;;;;;;;15.82;3.58;;;9.80;64.50;;;;;;5038264;28;20018;-78
2024/01/23 06:23:48;;;;;;;18.08;4.10;;;9.80;64.50;;;;;;5021181;28;20073;-78
2024/01/23 06:26:14;;;;;;;13.25;3.45;;;9.90;64.70;;;;;;5022452;28;20061;-78
2024/01/23 06:28:45;;;;;;;14.13;4.03;;;9.90;64.70;;;;;;5029664;28;20451;-77
2024/01/23 06:31:12;;;;;;;19.23;4.25;;;9.90;64.80;;;;;;5023032;28;20052;-79
2024/01/23 06:33:38;;;;;;;13.05;2.85;;;9.90;64.80;;;;;;5038065;28;20131;-79
2024/01/23 06:36:04;;;;;;;15.45;3.35;;;10.00;65.00;;;;;;5042343;28;20527;-78
2024/01/23 06:38:30;;;;;;;16.33;3.70;;;10.00;65.00;;;;;;5038476;28;20033;-78
2024/01/23 06:40:56;;;;;;;10.57;3.17;;;10.00;65.00;;;;;;5033342;28;20594;-76
2024/01/23 06:43:22;;;;;;;14.63;3.83;;;10.00;65.00;;;;;;5009754;28;20540;-79
2024/01/23 06:45:48;;;;;;;11.57;3.60;;;10.10;65.20;;;;;;5035016;28;20059;-77
2024/01/23 06:48:14;;;;;;;14.40;3.38;;;10.10;65.20;;;;;;5014346;28;20033;-77
2024/01/23 06:50:40;;;;;;;10.73;2.97;;;10.20;65.70;;;;;;5036147;28;20462;-78
2024/01/23 06:53:09;;;;;;;16.35;2.80;;;10.20;66.00;;;;;;5020281;28;20035;-74
2024/01/23 06:55:35;;;;;;;11.18;3.22;;;10.40;66.40;;;;;;5035870;28;20044;-74
2024/01/23 06:58:01;;;;;;;15.32;4.65;;;10.40;66.40;;;;;;5035340;28;20028;-75
2024/01/23 07:00:27;;;;;;;11.13;2.60;;;10.50;66.50;;;;;;4995315;28;20041;-74
2024/01/23 07:02:53;;;;;;;15.70;3.28;;;10.50;66.40;;;;;;5019812;28;20087;-73
2024/01/23 07:05:19;;;;;;;10.50;2.80;;;10.50;66.40;;;;;;5031425;28;20031;-74
2024/01/23 07:07:45;;;;;;;10.45;2.65;;;10.50;66.30;;;;;;5033064;28;20068;-74
2024/01/23 07:10:11;;;;;;;15.77;5.32;;;10.50;66.30;;;;;;5013577;28;20304;-77
2024/01/23 07:12:37;;;;;;;30.30;7.18;;;10.50;66.30;;;;;;5014889;28;20033;-75
2024/01/23 07:15:03;;;;;;;25.52;5.15;;;10.50;66.50;;;;;;5030835;28;20033;-76
2024/01/23 07:17:30;;;;;;;22.90;5.57;;;10.50;66.70;;;;;;5036471;28;20032;-75
2024/01/23 07:19:56;;;;;;;21.10;4.60;;;10.50;66.70;;;;;;5032037;28;20029;-75
2024/01/23 07:22:22;;;;;;;21.65;5.38;;;10.50;66.70;;;;;;5012677;28;20029;-74
2024/01/23 07:24:48;;;;;;;17.05;4.55;;;10.50;66.70;;;;;;5012151;28;20064;-76
2024/01/23 07:27:14;;;;;;;19.27;4.72;;;10.50;66.80;;;;;;5027077;28;20496;-75
2024/01/23 07:29:40;;;;;;;17.30;4.22;;;10.50;66.70;;;;;;5015448;28;20085;-75
2024/01/23 07:32:06;;;;;;;21.23;4.15;;;10.50;66.70;;;;;;5033187;28;20511;-75
2024/01/23 07:34:32;;;;;;;17.33;4.13;;;10.50;66.70;;;;;;5031494;28;20398;-74
2024/01/23 07:36:58;;;;;;;17.60;4.30;;;10.50;66.80;;;;;;5033912;28;20504;-76
2024/01/23 07:39:25;;;;;;;13.57;3.83;;;10.50;66.70;;;;;;5020730;28;20021;-75
2024/01/23 07:41:51;;;;;;;16.73;3.75;;;10.50;66.80;;;;;;5032775;28;20080;-77
2024/01/23 07:44:17;;;;;;;18.95;4.43;;;10.50;66.70;;;;;;5005785;28;20029;-78
2024/01/23 07:46:42;;;;;;;11.63;2.88;;;10.50;66.70;;;;;;5034813;28;20057;-77
2024/01/23 07:49:08;;;;;;;11.43;3.55;;;10.40;66.60;;;;;;5024394;28;20029;-76
2024/01/23 07:51:47;;;;;;;14.00;4.35;;;10.50;66.80;;;;;;5035911;28;20032;-77
2024/01/23 07:54:13;;;;;;;13.07;4.13;;;10.50;66.90;;;;;;5035462;28;20377;-77
2024/01/23 07:56:39;;;;;;;17.48;4.00;;;10.50;66.90;;;;;;5035426;28;20037;-77
2024/01/23 07:59:05;;;;;;;14.15;3.63;;;10.50;66.90;;;;;;5034073;28;20028;-76
2024/01/23 08:01:31;;;;;;;18.02;4.50;;;10.50;67.00;;;;;;5018952;28;20514;-77
2024/01/23 08:03:59;;;;;;;12.30;3.13;;;10.50;67.00;;;;;;5032009;28;20519;-75
2024/01/23 08:06:26;;;;;;;17.30;3.53;;;10.60;67.20;;;;;;5029247;28;20524;-76
2024/01/23 08:08:52;;;;;;;13.40;2.97;;;10.60;67.20;;;;;;5031553;28;20067;-77
2024/01/23 08:11:20;;;;;;;11.85;2.83;;;10.60;67.30;;;;;;5037776;28;20692;-78
2024/01/23 08:13:47;;;;;;;14.50;3.33;;;10.60;67.30;;;;;;5038836;28;20072;-77
2024/01/23 08:16:14;;;;;;;12.00;3.47;;;10.70;67.50;;;;;;5036449;28;20089;-76
2024/01/23 08:18:40;;;;;;;10.98;2.30;;;10.60;67.30;;;;;;5028527;28;20132;-77
2024/01/23 08:21:07;;;;;;;9.88;3.08;;;10.70;67.50;;;;;;5019043;28;20025;-76
2024/01/23 08:23:34;;;;;;;11.20;2.47;;;10.70;67.50;;;;;;5005257;28;20036;-77
2024/01/23 08:26:03;;;;;;;9.75;2.75;;;10.80;67.70;;;;;;5020954;28;20036;-77
2024/01/23 08:28:30;;;;;;;10.93;3.63;;;10.80;67.70;;;;;;5016589;28;20053;-77
2024/01/23 08:31:02;;;;;;;10.82;2.53;;;10.80;67.70;;;;;;5034285;28;20115;-77
2024/01/23 08:33:29;;;;;;;16.55;2.30;;;10.90;67.90;;;;;;5036617;28;20029;-76
2024/01/23 08:35:56;;;;;;;11.48;2.60;;;10.90;67.90;;;;;;5019997;28;20283;-77
2024/01/23 08:38:22;;;;;;;7.35;2.17;;;10.90;67.90;;;;;;5017810;28;20044;-76
2024/01/23 08:40:48;;;;;;;10.82;2.88;;;10.90;67.90;;;;;;5037167;28;20114;-77
2024/01/23 08:43:14;;;;;;;7.63;2.17;;;11.00;68.10;;;;;;5034922;28;20036;-77
2024/01/23 08:45:40;;;;;;;8.20;1.77;;;11.00;68.10;;;;;;5041731;28;20526;-77
2024/01/23 08:48:06;;;;;;;11.20;2.55;;;11.10;68.30;;;;;;5034413;28;20043;-76
2024/01/23 08:50:32;;;;;;;5.28;1.48;;;11.10;68.50;;;;;;5027140;28;20033;-75
2024/01/23 08:52:59;;;;;;;5.60;1.92;;;11.20;68.80;;;;;;5032779;28;20554;-75
2024/01/23 08:55:24;;;;;;;6.90;2.53;;;11.40;69.00;;;;;;5041016;28;20032;-75
2024/01/23 08:57:50;;;;;;;5.63;1.63;;;11.70;69.10;;;;;;5015223;28;20044;-75
2024/01/23 09:00:17;;;;;;;5.72;2.00;;;11.90;68.90;;;;;;5033757;28;20441;-75
2024/01/23 09:02:42;;;;;;;6.60;1.50;;;12.20;69.00;;;;;;5030618;28;20487;-75
2024/01/23 09:05:09;;;;;;;5.22;1.85;;;12.40;68.70;;;;;;5038957;28;20119;-77
2024/01/23 09:07:35;;;;;;;4.50;1.55;;;12.70;68.70;;;;;;5033671;28;20040;-75
2024/01/23 09:10:01;;;;;;;5.15;1.65;;;12.90;68.40;;;;;;5021110;28;20588;-76
2024/01/23 09:12:33;;;;;;;5.28;2.08;;;13.10;68.20;;;;;;5040331;28;20507;-75
2024/01/23 09:15:00;;;;;;;2.60;0.93;;;13.30;68.00;;;;;;5023072;28;20037;-75
2024/01/23 09:17:26;;;;;;;4.60;1.52;;;13.40;67.60;;;;;;5032564;28;20041;-75
2024/01/23 09:19:52;;;;;;;4.60;1.65;;;13.60;67.50;;;;;;5030527;28;20097;-76
2024/01/23 09:22:18;;;;;;;3.97;1.52;;;13.80;67.30;;;;;;5027317;28;20134;-75
2024/01/23 09:24:44;;;;;;;5.72;1.70;;;13.90;67.00;;;;;;5037051;28;20032;-75
2024/01/23 09:27:10;;;;;;;4.05;1.40;;;14.10;67.50;;;;;;5038339;28;20055;-76
2024/01/23 09:29:37;;;;;;;3.00;1.20;;;14.20;66.70;;;;;;5038457;28;20035;-75
2024/01/23 09:32:04;;;;;;;3.80;1.30;;;14.30;66.50;;;;;;5039245;28;20033;-75
2024/01/23 09:34:30;;;;;;;3.40;1.30;;;14.40;66.20;;;;;;5014458;28;20044;-78
2024/01/23 09:36:56;;;;;;;5.05;1.85;;;14.50;66.00;;;;;;5033827;28;20310;-78
2024/01/23 09:39:22;;;;;;;5.35;1.88;;;14.70;66.00;;;;;;5039399;28;20025;-78
2024/01/23 09:41:56;;;;;;;6.65;2.20;;;14.70;65.60;;;;;;5020242;28;20045;-76
2024/01/23 09:44:22;;;;;;;3.88;1.00;;;14.90;65.60;;;;;;5033807;28;20029;-77
2024/01/23 09:46:53;;;;;;;3.45;1.33;;;15.00;65.50;;;;;;5041983;28;20415;-77
2024/01/23 09:49:20;;;;;;;5.22;2.22;;;15.00;65.10;;;;;;5037735;28;20041;-77
2024/01/23 09:51:49;;;;;;;2.95;1.25;;;15.10;64.90;;;;;;5026252;28;20117;-77
2024/01/23 09:54:15;;;;;;;7.00;1.30;;;15.20;64.80;;;;;;5029136;28;20445;-77
2024/01/23 09:56:42;;;;;;;3.63;1.10;;;15.30;64.60;;;;;;5029198;28;20036;-78
2024/01/23 09:59:09;;;;;;;5.43;0.95;;;15.30;64.40;;;;;;5035176;28;20478;-78
2024/01/23 10:01:37;;;;;;;3.88;1.02;;;15.40;64.30;;;;;;5024622;28;20047;-76
2024/01/23 10:04:05;;;;;;;4.15;2.13;;;15.50;64.20;;;;;;5036957;28;20328;-76
2024/01/23 10:06:35;;;;;;;4.63;2.08;;;15.50;64.50;;;;;;5016250;28;20076;-75
2024/01/23 10:09:01;;;;;;;3.72;1.17;;;15.60;63.80;;;;;;5029780;28;20025;-76
2024/01/23 10:11:29;;;;;;;6.35;1.48;;;15.60;63.60;;;;;;5035351;28;20036;-77
2024/01/23 10:13:58;;;;;;;5.00;1.30;;;15.70;63.50;;;;;;5033311;28;20769;-77
2024/01/23 10:16:26;;;;;;;3.50;1.40;;;15.70;63.30;;;;;;5030420;28;20039;-77
2024/01/23 10:18:56;;;;;;;5.80;1.65;;;15.80;63.20;;;;;;5017179;28;20040;-77
2024/01/23 10:21:23;;;;;;;3.15;1.00;;;15.80;62.90;;;;;;5029522;28;20508;-77
2024/01/23 10:23:57;;;;;;;2.28;0.82;;;15.90;62.90;;;;;;5034009;28;20034;-76
2024/01/23 10:26:26;;;;;;;5.07;1.15;;;16.00;62.80;;;;;;5020624;28;20931;-76
2024/01/23 10:28:53;;;;;;;4.70;2.33;;;16.10;63.20;;;;;;5032290;28;20049;-77
2024/01/23 10:31:19;;;;;;;4.65;1.27;;;16.20;62.70;;;;;;5038800;28;20573;-78
2024/01/23 10:33:45;;;;;;;4.53;1.10;;;16.20;62.40;;;;;;5038382;28;20048;-76
2024/01/23 10:36:12;;;;;;;3.05;0.90;;;16.30;62.30;;;;;;5032002;28;20046;-77
2024/01/23 10:38:40;;;;;;;4.75;1.17;;;16.30;62.10;;;;;;5026663;28;20501;-75
2024/01/23 10:41:06;;;;;;;3.75;1.05;;;16.30;61.90;;;;;;5019198;28;20036;-76
2024/01/23 10:43:33;;;;;;;3.22;0.85;;;16.40;61.90;;;;;;5016879;28;20025;-77
2024/01/23 10:46:02;;;;;;;2.75;1.00;;;16.40;61.70;;;;;;5011670;28;20029;-75
2024/01/23 10:48:30;;;;;;;3.45;1.02;;;16.40;61.60;;;;;;5034118;28;20036;-77
2024/01/23 10:51:03;;;;;;;7.00;2.67;;;16.50;61.60;;;;;;5030340;28;20035;-78
2024/01/23 10:53:48;;;;;;;1.85;0.88;;;16.50;61.40;;;;;;5001686;28;20501;-77
2024/01/23 10:56:15;;;;;;;2.85;0.95;;;16.50;61.30;;;;;;5023265;28;20399;-77
2024/01/23 10:58:44;;;;;;;7.15;1.08;;;16.60;61.40;;;;;;5024736;28;20110;-76
2024/01/23 11:01:13;;;;;;;3.47;1.15;;;16.70;61.20;;;;;;5027171;28;20492;-77
2024/01/23 11:03:39;;;;;;;5.95;2.15;;;16.80;61.10;;;;;;5026498;28;20090;-79
2024/01/23 11:06:20;;;;;;;2.83;0.80;;;16.80;60.90;;;;;;5038466;28;20059;-77
2024/01/23 11:08:51;;;;;;;2.80;1.00;;;16.90;60.80;;;;;;5032086;28;20028;-78
2024/01/23 11:11:40;;;;;;;2.85;1.20;;;16.90;60.60;;;;;;5032805;28;20028;-77
2024/01/23 11:14:18;;;;;;;2.42;1.10;;;17.00;60.40;;;;;;5037299;28;20055;-77
2024/01/23 11:17:06;;;;;;;1.80;0.85;;;17.00;60.30;;;;;;5030030;28;20034;-77
2024/01/23 11:19:43;;;;;;;2.45;0.52;;;17.10;60.20;;;;;;5033373;28;20056;-77
2024/01/23 11:22:09;;;;;;;2.63;0.82;;;17.10;60.10;;;;;;5033177;28;20267;-78
2024/01/23 11:24:45;;;;;;;3.72;1.00;;;17.20;60.20;;;;;;5037641;28;20072;-79
2024/01/23 11:27:21;;;;;;;1.73;0.75;;;17.20;60.00;;;;;;5019769;28;20065;-78
2024/01/23 11:29:49;;;;;;;1.75;0.60;;;17.20;59.90;;;;;;5020294;28;20560;-77
2024/01/23 11:32:19;;;;;;;2.28;0.60;;;17.20;59.90;;;;;;5041769;28;20036;-78
2024/01/23 11:34:46;;;;;;;3.03;1.65;;;17.20;59.80;;;;;;5035847;28;20090;-78
2024/01/23 11:37:31;;;;;;;1.83;1.13;;;17.10;59.60;;;;;;5028963;28;20033;-77
2024/01/23 11:40:03;;;;;;;2.58;1.02;;;17.10;59.40;;;;;;5030419;28;20022;-75
2024/01/23 11:42:41;;;;;;;1.20;0.50;;;17.10;59.50;;;;;;5016657;28;20025;-76
2024/01/23 11:45:21;;;;;;;1.50;0.45;;;17.10;59.30;;;;;;5011630;28;20025;-77
2024/01/23 11:48:00;;;;;;;1.67;0.57;;;17.10;59.20;;;;;;5033458;28;20157;-77
2024/01/23 11:50:29;;;;;;;0.90;0.30;;;17.10;59.20;;;;;;5040921;28;20040;-76
2024/01/23 11:53:00;;;;;;;0.98;0.40;;;17.10;59.20;;;;;;5033886;28;20061;-78
2024/01/23 11:55:27;;;;;;;1.13;0.50;;;17.10;59.20;;;;;;5015397;28;20291;-77
2024/01/23 11:57:55;;;;;;;1.75;0.80;;;17.10;59.10;;;;;;5017581;28;20036;-79
2024/01/23 12:00:25;;;;;;;2.05;0.68;;;17.10;59.00;;;;;;5020074;28;20335;-78
2024/01/23 12:02:51;;;;;;;0.90;0.45;;;17.10;59.00;;;;;;5034603;28;20370;-79
2024/01/23 12:05:18;;;;;;;14.35;5.88;;;17.10;58.80;;;;;;5010967;28;20025;-76
2024/01/23 12:07:44;;;;;;;11.00;5.15;;;17.10;58.80;;;;;;5026043;28;20128;-77
2024/01/23 12:10:15;;;;;;;5.25;3.60;;;17.10;58.80;;;;;;5033526;28;20037;-77
2024/01/23 12:12:46;;;;;;;5.53;2.30;;;17.20;58.90;;;;;;5036927;28;20087;-76
2024/01/23 12:15:12;;;;;;;5.63;2.40;;;17.20;58.80;;;;;;5019314;28;20797;-75
2024/01/23 12:17:46;;;;;;;4.18;1.60;;;17.20;58.70;;;;;;5038391;28;20090;-77
2024/01/23 12:20:13;;;;;;;2.28;1.20;;;17.20;58.50;;;;;;5037355;28;20499;-76
2024/01/23 12:22:40;;;;;;;1.63;1.25;;;17.20;58.50;;;;;;5032110;28;20037;-78
2024/01/23 12:25:07;;;;;;;2.63;1.05;;;17.30;58.60;;;;;;5016278;28;20159;-77
2024/01/23 12:27:33;;;;;;;3.40;0.70;;;17.30;58.50;;;;;;5013660;28;20152;-76
2024/01/23 12:30:00;;;;;;;1.00;0.77;;;17.30;58.50;;;;;;5031904;28;20086;-76
2024/01/23 12:32:27;;;;;;;2.35;0.82;;;17.30;58.50;;;;;;5016287;28;20116;-76
2024/01/23 12:34:54;;;;;;;2.00;0.80;;;17.20;58.30;;;;;;5016586;28;20279;-78
2024/01/23 12:37:28;;;;;;;1.65;1.08;;;17.20;58.30;;;;;;5034176;28;20044;-76
2024/01/23 12:39:55;;;;;;;1.30;0.65;;;17.20;58.20;;;;;;5031359;28;20035;-77
2024/01/23 12:42:24;;;;;;;1.35;0.60;;;17.20;58.30;;;;;;5015489;28;20033;-76